Nathaniel B. Palmer — WBP3210 — position and weather

sailwx.info

Track history (hours):
 
Tides and Currents Weather Stations Pressure Air Temp Water Temp Dewpoint Dewpoint Depression Visibility Wind Speed Wind Dir Waves Ship Positions

Oceanographic research ship Nathaniel B. Palmer (USA)

Contact: Ethan Norris, ethan.norris.contractor@usap.gov

Detailed information on ship capabilities available from University of Delaware's Ocean Information Center and ARCUS's ALIAS (Arctic Logistics Information and Support) project.

Owner: OFFSHORE SERVICE VESSELS, GALLIANO, LA. More information available from US FCC via Universal Licensing System and Coast Guard Vessel Documentation Center.

Last reported at 2016-Jul-25 13:00 UTC. Time now 2016-Jul-25 13:54 UTC.
Position S 53°06' W 070°54'.

Type: Other ship. MMSI: 366610000.

Wind from 280 at 10 knots

Barometer 1020.5 mb
Air temperature 2.8 ° C
Water temperature -0.0 ° C

Date/timePositionNaut miles runAvg speedWind from/ knotsBaromVisibWave heightAir tempDewpointWater temp
2016-Jul-25 13:00S 53°06' W 070°54'0 0.0 280 / 101020.5 2.8 -0.0
2016-Jul-25 12:00S 53°06' W 070°54'0 0.0 280 / 91020.4 2.7 -0.0
2016-Jul-25 11:00S 53°06' W 070°54'0 0.0 270 / 91020.1 2.7 -0.0
2016-Jul-25 10:00S 53°06' W 070°54'0 0.0 280 / 91020.0 2.4 -0.0
2016-Jul-25 09:00S 53°06' W 070°54'0 0.0 290 / 101020.2 2.6 -0.0
2016-Jul-25 08:00S 53°06' W 070°54'0 0.0 280 / 91020.4 2.5 -0.0
2016-Jul-25 07:00S 53°06' W 070°54'0 0.0 270 / 81020.5 3.5 -0.0
2016-Jul-25 06:00S 53°06' W 070°54'0 0.0 270 / 121020.6 3.3 -0.0
2016-Jul-25 05:00S 53°06' W 070°54'0 0.0 280 / 81020.9 3.0 -0.0
2016-Jul-25 04:00S 53°06' W 070°54'0 0.0 280 / 81020.8 3.4 -0.0
2016-Jul-25 03:00S 53°06' W 070°54'0 0.0 280 / 81020.5 3.6 -0.0
2016-Jul-25 02:00S 53°06' W 070°54'0 0.0 290 / 71020.2 3.7 -0.0
2016-Jul-25 01:00S 53°06' W 070°54'0 0.0 270 / 51020.2 4.0 -0.0
2016-Jul-25 00:00S 53°06' W 070°54'0 0.0 280 / 61020.2 3.9 -0.0
2016-Jul-24 23:00S 53°06' W 070°54'0 0.0 260 / 61020.1 4.8 -0.0
2016-Jul-24 22:00S 53°06' W 070°54'0 0.0 280 / 71019.7 4.8 -0.0
2016-Jul-24 21:00S 53°06' W 070°54'0 0.0 250 / 91019.5 5.5 -0.0
2016-Jul-24 20:00S 53°06' W 070°54'0 0.0 250 / 111019.5 6.0 -0.0
2016-Jul-24 19:00S 53°06' W 070°54'0 0.0 260 / 81019.4 6.2 -0.0
2016-Jul-24 18:00S 53°06' W 070°54'0 0.0 270 / 81019.6 5.9 -0.0
2016-Jul-24 17:00S 53°06' W 070°54'0 0.0 280 / 91019.7 5.8 -0.0
2016-Jul-24 16:00S 53°06' W 070°54'4 3.6 280 / 91019.8 5.4 -0.0
2016-Jul-24 15:00S 53°06' W 070°48'4 3.6 280 / 61019.5 5.0 -0.0
2016-Jul-24 14:00S 53°06' W 070°54'0 0.0 330 / 71019.3 4.5 -0.0
2016-Jul-24 13:00S 53°06' W 070°54'0 0.0 340 / 41019.2 4.0 -0.0
2016-Jul-24 12:00S 53°06' W 070°54'0 0.0 340 / 61018.6 4.0 -0.0
2016-Jul-24 11:00S 53°06' W 070°54'0 0.0 290 / 81018.1 4.4 -0.0
2016-Jul-24 10:00S 53°06' W 070°54'0 0.0 260 / 131018.0 4.5 -0.0
2016-Jul-24 09:00S 53°06' W 070°54'0 0.0 310 / 61018.0 3.9 -0.0
2016-Jul-24 08:00S 53°06' W 070°54'0 0.0 320 / 51017.8 3.7 -0.0
2016-Jul-24 07:00S 53°06' W 070°54'0 0.0 260 / 121017.4 3.9 -0.0
2016-Jul-24 06:00S 53°06' W 070°54'0 0.0 260 / 151017.1 4.2 -0.0
2016-Jul-24 05:00S 53°06' W 070°54'0 0.0 260 / 141017.2 4.0 -0.0
2016-Jul-24 04:00S 53°06' W 070°54'0 0.0 280 / 101017.2 3.8 -0.0
2016-Jul-24 03:00S 53°06' W 070°54'0 0.0 290 / 91017.0 3.6 -0.0
2016-Jul-24 02:00S 53°06' W 070°54'0 0.0 280 / 131016.5 3.5 -0.0
2016-Jul-24 01:00S 53°06' W 070°54'0 0.0 280 / 101016.4 3.3 -0.0
2016-Jul-24 00:00S 53°06' W 070°54'0 0.0 280 / 71016.0 3.3 -0.0
2016-Jul-23 23:00S 53°06' W 070°54'0 0.0 270 / 111015.3 3.2 -0.0
2016-Jul-23 22:00S 53°06' W 070°54'0 0.0 260 / 131014.7 3.4 -0.0
2016-Jul-23 21:00S 53°06' W 070°54'0 0.0 260 / 111014.4 3.9 -0.0
2016-Jul-23 20:00S 53°06' W 070°54'0 0.0 260 / 161013.8 4.4 -0.0
2016-Jul-23 19:00S 53°06' W 070°54'0 0.0 260 / 151013.7 4.0 -0.0
2016-Jul-23 18:00S 53°06' W 070°54'0 0.0 260 / 151013.7 4.1 -0.0
2016-Jul-23 17:00S 53°06' W 070°54'0 0.0 270 / 161013.6 4.0 -0.0
2016-Jul-23 16:00S 53°06' W 070°54'0 0.0 260 / 141013.4 3.9 -0.0
2016-Jul-23 15:00S 53°06' W 070°54'0 0.0 270 / 141013.1 3.4 -0.0
2016-Jul-23 14:00S 53°06' W 070°54'0 0.0 280 / 91012.9 2.8 -0.0
2016-Jul-23 13:00S 53°06' W 070°54'0 0.0 270 / 91012.2 2.7 -0.0
2016-Jul-23 12:00S 53°06' W 070°54'0 0.0 260 / 121011.0 2.7 -0.0
2016-Jul-23 11:00S 53°06' W 070°54'0 0.0 280 / 131010.3 2.6 -0.0
2016-Jul-23 10:00S 53°06' W 070°54'0 0.0 280 / 151009.8 2.6 -0.0
2016-Jul-23 09:00S 53°06' W 070°54'0 0.0 290 / 151009.4 2.7 -0.0
2016-Jul-23 08:00S 53°06' W 070°54'0 0.0 290 / 91009.5 2.4 -0.0
2016-Jul-23 07:00S 53°06' W 070°54'0 0.0 290 / 111009.6 2.0 -0.0
2016-Jul-23 06:00S 53°06' W 070°54'0 0.0 270 / 81009.1 1.8 -0.0
2016-Jul-23 05:00S 53°06' W 070°54'0 0.0 270 / 111008.7 1.9 -0.0
2016-Jul-23 04:00S 53°06' W 070°54'0 0.0 270 / 91008.2 1.9 -0.0
2016-Jul-23 03:00S 53°06' W 070°54'0 0.0 280 / 91007.8 2.2 -0.0
2016-Jul-23 02:00S 53°06' W 070°54'0 0.0 290 / 61007.5 2.7 -0.0
2016-Jul-23 01:00S 53°06' W 070°54'0 0.0 340 / 41006.8 3.5 -0.0
2016-Jul-23 00:00S 53°06' W 070°54'0 0.0 300 / 41006.2 3.1 -0.0
2016-Jul-22 23:00S 53°06' W 070°54'0 0.0 290 / 61005.5 3.2 -0.0
2016-Jul-22 22:00S 53°06' W 070°54'0 0.0 270 / 91004.6 3.6 -0.0
2016-Jul-22 21:00S 53°06' W 070°54'0 0.0 270 / 81004.0 3.9 -0.0
2016-Jul-22 20:00S 53°06' W 070°54'0 0.0 260 / 121003.4 4.5 -0.0
2016-Jul-22 19:00S 53°06' W 070°54'0 0.0 280 / 101003.2 4.6 -0.0
2016-Jul-22 18:00S 53°06' W 070°54'0 0.0 300 / 101002.9 5.0 -0.0
2016-Jul-22 17:00S 53°06' W 070°54'0 0.0 280 / 141002.5 5.0 -0.0
2016-Jul-22 16:00S 53°06' W 070°54'0 0.0 280 / 131002.4 4.9 -0.0
2016-Jul-22 15:00S 53°06' W 070°54'0 0.0 280 / 111002.1 4.7 -0.0
2016-Jul-22 14:00S 53°06' W 070°54'0 0.0 280 / 101001.9 4.5 -0.0
2016-Jul-22 13:00S 53°06' W 070°54'0 0.0 270 / 131001.6 4.8 -0.0
2016-Jul-22 12:00S 53°06' W 070°54'0 0.0 280 / 141001.3 5.3 -0.0
2016-Jul-22 11:00S 53°06' W 070°54'0 0.0 280 / 211000.8 5.5 -0.0
2016-Jul-22 10:00S 53°06' W 070°54'0 0.0 290 / 161000.8 5.0 -0.0
2016-Jul-22 09:00S 53°06' W 070°54'0 0.0 290 / 191000.3 5.1 -0.0
2016-Jul-22 08:00S 53°06' W 070°54'0 0.0 290 / 241000.2 5.0 -0.0
2016-Jul-22 07:00S 53°06' W 070°54'0 0.0 280 / 281000.1 4.9 -0.0
2016-Jul-22 06:00S 53°06' W 070°54'0 0.0 280 / 231000.2 4.7 -0.0
2016-Jul-22 05:00S 53°06' W 070°54'0 0.0 280 / 251000.3 4.9 -0.0
2016-Jul-22 04:00S 53°06' W 070°54'0 0.0 280 / 181001.1 5.0 -0.0
2016-Jul-22 03:00S 53°06' W 070°54'0 0.0 310 / 101001.6 4.9 -0.0
2016-Jul-22 02:00S 53°06' W 070°54'0 0.0 280 / 211001.1 4.7 -0.0
2016-Jul-22 01:00S 53°06' W 070°54'0 0.0 280 / 231001.1 4.5 -0.0
2016-Jul-22 00:00S 53°06' W 070°54'0 0.0 270 / 271000.6 4.7 -0.0
2016-Jul-21 23:00S 53°06' W 070°54'0 0.0 270 / 261000.7 4.6 -0.0
2016-Jul-21 22:00S 53°06' W 070°54'0 0.0 270 / 271000.5 4.4 -0.0
2016-Jul-21 21:00S 53°06' W 070°54'0 0.0 270 / 271000.1 4.6 -0.0
2016-Jul-21 20:00S 53°06' W 070°54'0 0.0 280 / 201000.2 4.1 -0.0
2016-Jul-21 19:00S 53°06' W 070°54'0 0.0 280 / 20999.8 4.3 -0.0
2016-Jul-21 18:00S 53°06' W 070°54'0 0.0 290 / 19999.3 3.9 -0.0
2016-Jul-21 17:00S 53°06' W 070°54'0 0.0 300 / 22998.9 3.9 -0.0
2016-Jul-21 16:00S 53°06' W 070°54'0 0.0 300 / 26998.3 4.0 -0.0
2016-Jul-21 15:00S 53°06' W 070°54'0 0.0 290 / 18997.8 3.5 -0.0
2016-Jul-21 14:00S 53°06' W 070°54'0 0.0 350 / 9998.5 3.3 -0.0
2016-Jul-21 13:00S 53°06' W 070°54'0 0.0 360 / 12998.9 3.3 -0.0
2016-Jul-21 12:00S 53°06' W 070°54'0 0.0 310 / 13998.8 2.9 -0.0
2016-Jul-21 11:00S 53°06' W 070°54'0 0.0 290 / 14998.7 2.8 -0.0
2016-Jul-21 10:00S 53°06' W 070°54'0 0.0 280 / 18998.0 2.8 -0.0
2016-Jul-21 09:00S 53°06' W 070°54'0 0.0 280 / 21997.3 2.8 -0.0
2016-Jul-21 08:00S 53°06' W 070°54'0 0.0 280 / 17996.6 3.0 -0.0
2016-Jul-21 07:00S 53°06' W 070°54'0 0.0 280 / 10995.8 3.6 -0.0
2016-Jul-21 06:00S 53°06' W 070°54'0 0.0 280 / 11994.2 4.3 -0.0
2016-Jul-21 05:00S 53°06' W 070°54'0 0.0 280 / 10992.6 5.2 -0.0
2016-Jul-21 04:00S 53°06' W 070°54'0 0.0 260 / 12990.1 5.7 -0.0
2016-Jul-21 03:00S 53°06' W 070°54'0 0.0 270 / 27987.3 5.5 -0.0
2016-Jul-21 02:00S 53°06' W 070°54'0 0.0 280 / 30985.6 5.8 -0.0
2016-Jul-21 01:00S 53°06' W 070°54'0 0.0 310 / 12985.7 5.7 -0.0
2016-Jul-21 00:00S 53°06' W 070°54'0 0.0 140 / 2985.4 4.7 -0.0
2016-Jul-20 23:00S 53°06' W 070°54'0 0.0 240 / 6985.1 4.5 -0.0
2016-Jul-20 22:00S 53°06' W 070°54'0 0.0 250 / 5985.0 4.3 -0.0
2016-Jul-20 21:00S 53°06' W 070°54'0 0.0 230 / 6985.2 4.3 -0.0
2016-Jul-20 20:00S 53°06' W 070°54'0 0.0 190 / 4985.6 4.5 -0.0
2016-Jul-20 19:00S 53°06' W 070°54'0 0.0 220 / 6986.4 4.5 -0.0
2016-Jul-20 18:00S 53°06' W 070°54'0 0.0 210 / 5987.4 4.4 -0.0
2016-Jul-20 17:00S 53°06' W 070°54'0 0.0 190 / 4988.6 4.5 -0.0
2016-Jul-20 16:00S 53°06' W 070°54'0 0.0 190 / 7989.3 4.3 -0.0
2016-Jul-20 15:00S 53°06' W 070°54'0 0.0 230 / 7989.9 3.9 -0.0
2016-Jul-20 14:00S 53°06' W 070°54'0 0.0 230 / 5990.5 3.8 -0.0
2016-Jul-20 13:00S 53°06' W 070°54'0 0.0 220 / 4990.8 4.1 -0.0
2016-Jul-20 12:00S 53°06' W 070°54'0 0.0 210 / 3991.1 4.4 -0.0
2016-Jul-20 11:00S 53°06' W 070°54'0 0.0 220 / 4991.6 4.4 -0.0
2016-Jul-20 10:00S 53°06' W 070°54'0 0.0 220 / 4992.3 4.2 -0.0
2016-Jul-20 09:00S 53°06' W 070°54'0 0.0 230 / 4993.3 4.3 -0.0
2016-Jul-20 08:00S 53°06' W 070°54'0 0.0 240 / 6994.1 4.2 -0.0
2016-Jul-20 07:00S 53°06' W 070°54'0 0.0 230 / 4995.0 4.4 -0.0
2016-Jul-20 06:00S 53°06' W 070°54'0 0.0 240 / 4995.6 4.2 -0.0
2016-Jul-20 05:00S 53°06' W 070°54'0 0.0 220 / 6996.3 3.9 -0.0
2016-Jul-20 04:00S 53°06' W 070°54'0 0.0 230 / 6997.5 4.1 -0.0
2016-Jul-20 03:00S 53°06' W 070°54'0 0.0 250 / 4998.3 4.2 -0.0
2016-Jul-20 02:00S 53°06' W 070°54'0 0.0 230 / 2998.8 4.8 -0.0
2016-Jul-20 01:00S 53°06' W 070°54'0 0.0 350 / 2999.6 5.6 -0.0
2016-Jul-20 00:00S 53°06' W 070°54'0 0.0 010 / 41000.6 5.6 -0.0
2016-Jul-19 23:00S 53°06' W 070°54'0 0.0 210 / 31001.2 5.4 -0.0
2016-Jul-19 22:00S 53°06' W 070°54'0 0.0 180 / 31001.5 5.9 -0.0
2016-Jul-19 21:00S 53°06' W 070°54'0 0.0 320 / 31001.6 6.0 -0.0
2016-Jul-19 20:00S 53°06' W 070°54'0 0.0 040 / 81002.0 6.0 -0.0
2016-Jul-19 19:00S 53°06' W 070°54'0 0.0 080 / 41002.2 6.4 -0.0
2016-Jul-19 18:00S 53°06' W 070°54'0 0.0 270 / 61002.9 7.2 -0.0
2016-Jul-19 17:00S 53°06' W 070°54'0 0.0 010 / 71004.4 7.7 -0.0
2016-Jul-19 16:00S 53°06' W 070°54'0 0.0 350 / 51005.1 7.2 -0.0
2016-Jul-19 15:00S 53°06' W 070°54'0 0.0 340 / 101005.6 5.8 -0.0
2016-Jul-19 14:00S 53°06' W 070°54'0 0.0 350 / 61005.4 4.2 -0.0
2016-Jul-19 13:00S 53°06' W 070°54'0 0.0 030 / 81004.9 5.5 -0.0
2016-Jul-19 12:00S 53°06' W 070°54'0 0.0 040 / 71004.6 4.7 -0.0
2016-Jul-19 11:00S 53°06' W 070°54'0 0.0 050 / 81003.8 4.6 -0.0
2016-Jul-19 10:00S 53°06' W 070°54'0 0.0 060 / 41003.4 5.6 -0.0
2016-Jul-19 09:00S 53°06' W 070°54'0 0.0 330 / 71003.5 7.0 -0.0
2016-Jul-19 08:00S 53°06' W 070°54'0 0.0 320 / 141004.3 6.5 -0.0
2016-Jul-19 07:00S 53°06' W 070°54'0 0.0 330 / 131005.3 6.3 -0.0
2016-Jul-19 06:00S 53°06' W 070°54'0 0.0 330 / 81005.8 6.4 -0.0
2016-Jul-19 05:00S 53°06' W 070°54'0 0.0 320 / 131006.6 5.6 -0.0
2016-Jul-19 04:00S 53°06' W 070°54'0 0.0 320 / 151007.1 5.4 -0.0
2016-Jul-19 03:00S 53°06' W 070°54'0 0.0 340 / 91007.5 5.7 -0.0
2016-Jul-19 02:00S 53°06' W 070°54'0 0.0 340 / 131008.0 5.8 -0.0
2016-Jul-19 01:00S 53°06' W 070°54'0 0.0 020 / 71008.6 5.6 -0.0
2016-Jul-19 00:00S 53°06' W 070°54'0 0.0 050 / 71009.0 4.7 -0.0
2016-Jul-18 23:00S 53°06' W 070°54'0 0.0 040 / 91009.2 4.7 -0.0
2016-Jul-18 22:00S 53°06' W 070°54'0 0.0 020 / 91009.0 5.8 -0.0
2016-Jul-18 21:00S 53°06' W 070°54'0 0.0 030 / 61008.6 6.6 -0.0
2016-Jul-18 20:00S 53°06' W 070°54'0 0.0 030 / 61008.9 6.6 -0.0
2016-Jul-18 19:00S 53°06' W 070°54'0 0.0 020 / 111008.7 6.5 -0.0
2016-Jul-18 18:00S 53°06' W 070°54'0 0.0 030 / 111008.5 6.0 -0.0
2016-Jul-18 17:00S 53°06' W 070°54'0 0.0 020 / 91008.9 5.5 -0.0
2016-Jul-18 16:00S 53°06' W 070°54'0 0.0 020 / 61008.7 4.6 -0.0
2016-Jul-18 15:00S 53°06' W 070°54'0 0.0 030 / 41008.6 3.4 -0.0
2016-Jul-18 14:00S 53°06' W 070°54'0 0.0 300 / 41008.2 1.7 -0.0
2016-Jul-18 13:00S 53°06' W 070°54'0 0.0 290 / 31007.6 2.0 -0.0
2016-Jul-18 12:00S 53°06' W 070°54'0 0.0 300 / 21007.2 2.5 -0.0
2016-Jul-18 11:00S 53°06' W 070°54'0 0.0 280 / 21006.8 2.6 -0.0
2016-Jul-18 10:00S 53°06' W 070°54'0 0.0 270 / 21006.0 2.3 -0.0
2016-Jul-18 09:00S 53°06' W 070°54'0 0.0 290 / 41005.5 2.1 -0.0
2016-Jul-18 08:00S 53°06' W 070°54'0 0.0 320 / 51005.3 1.8 -0.0
2016-Jul-18 07:00S 53°06' W 070°54'0 0.0 340 / 51004.8 2.6 -0.0
2016-Jul-18 06:00S 53°06' W 070°54'0 0.0 010 / 81004.8 3.4 -0.0
2016-Jul-18 05:00S 53°06' W 070°54'0 0.0 010 / 81004.9 4.1 -0.0
2016-Jul-18 04:00S 53°06' W 070°54'0 0.0 020 / 101004.9 4.3 -0.0
2016-Jul-18 03:00S 53°06' W 070°54'0 0.0 020 / 101004.9 4.4 -0.0
2016-Jul-18 02:00S 53°06' W 070°54'0 0.0 020 / 121004.7 4.5 -0.0
2016-Jul-18 01:00S 53°06' W 070°54'0 0.0 030 / 161004.9 4.5 -0.0
2016-Jul-18 00:00S 53°06' W 070°54'0 0.0 030 / 161005.2 4.4 -0.0
2016-Jul-17 23:00S 53°06' W 070°54'0 0.0 030 / 161005.5 4.6 -0.0
2016-Jul-17 22:00S 53°06' W 070°54'0 0.0 020 / 121005.7 4.7 -0.0
2016-Jul-17 21:00S 53°06' W 070°54'0 0.0 030 / 121005.6 4.4 -0.0
2016-Jul-17 20:00S 53°06' W 070°54'4 3.6 020 / 111005.9 4.2 -0.0
2016-Jul-17 19:00S 53°06' W 070°48'6 6.0 020 / 211005.9 3.6 -0.0
2016-Jul-17 18:00S 53°12' W 070°48'6 1.0 020 / 281006.3 3.5 -0.0
2016-Jul-17 12:00S 53°06' W 070°48'6 6.0 020 / 351008.1 3.4 -0.0
2016-Jul-17 11:00S 53°12' W 070°48'6 6.0 020 / 371008.3 3.4 -0.0
2016-Jul-17 10:00S 53°18' W 070°48'6 3.0 020 / 381008.8 3.4 -0.0
2016-Jul-17 08:00S 53°24' W 070°48'12 4.0 020 / 421009.1 4.7 -0.0
2016-Jul-17 05:00S 53°36' W 070°48'6 6.0 030 / 441010.2 5.0 -0.0
2016-Jul-17 04:00S 53°42' W 070°48'0 0.0 030 / 461010.8 5.1 -0.0
2016-Jul-17 03:00S 53°42' W 070°48'0 0.0 040 / 441011.0 5.1 -0.0
2016-Jul-17 02:00S 53°42' W 070°48'36 6.0 050 / 391012.5 5.7 -0.0
2016-Jul-16 20:00S 53°06' W 070°48'4 3.6 040 / 381013.4 5.5 -0.0
2016-Jul-16 19:00S 53°06' W 070°54'0 0.0 040 / 281015.3 5.3 -0.0
2016-Jul-16 18:00S 53°06' W 070°54'0 0.0 040 / 301016.3 4.7 -0.0
2016-Jul-16 17:00S 53°06' W 070°54'0 0.0 050 / 311017.3 4.5 -0.0
2016-Jul-16 16:00S 53°06' W 070°54'0 0.0 040 / 281018.7 4.3 -0.0
2016-Jul-16 15:00S 53°06' W 070°54'0 0.0 040 / 251020.0 4.2 -0.0
2016-Jul-16 14:00S 53°06' W 070°54'0 0.0 040 / 261020.5 4.1 -0.0
2016-Jul-16 13:00S 53°06' W 070°54'0 0.0 040 / 251021.2 4.1 -0.0
2016-Jul-16 12:00S 53°06' W 070°54'0 0.0 040 / 231021.6 4.1 -0.0
2016-Jul-16 11:00S 53°06' W 070°54'0 0.0 030 / 231022.2 4.1 -0.0
2016-Jul-16 10:00S 53°06' W 070°54'0 0.0 030 / 221022.5 4.2 -0.0
2016-Jul-16 09:00S 53°06' W 070°54'0 0.0 030 / 211022.9 4.3 -0.0
2016-Jul-16 08:00S 53°06' W 070°54'0 0.0 030 / 191023.3 4.4 -0.0
2016-Jul-16 07:00S 53°06' W 070°54'0 0.0 020 / 171023.8 4.5 -0.0
2016-Jul-16 06:00S 53°06' W 070°54'0 0.0 020 / 181024.3 4.3 -0.0
2016-Jul-16 05:00S 53°06' W 070°54'0 0.0 050 / 161024.8 3.0 -0.0
2016-Jul-16 04:00S 53°06' W 070°54'0 0.0 040 / 151025.4 2.8 -0.0
2016-Jul-16 03:00S 53°06' W 070°54'0 0.0 020 / 111026.1 1.8 -0.0
2016-Jul-16 02:00S 53°06' W 070°54'0 0.0 010 / 141026.3 1.9 -0.0
2016-Jul-16 01:00S 53°06' W 070°54'0 0.0 020 / 111026.3 1.4 -0.0
2016-Jul-16 00:00S 53°06' W 070°54'0 0.0 010 / 121026.4 1.3 -0.0
2016-Jul-15 23:00S 53°06' W 070°54'0 0.0 1026.2 1.5 -0.0
2016-Jul-15 22:00S 53°06' W 070°54'0 0.0 030 / 101025.9 2.5 -0.0
2016-Jul-15 21:00S 53°06' W 070°54'0 0.0 050 / 91025.8 2.3 -0.0
2016-Jul-15 20:00S 53°06' W 070°54'0 0.0 030 / 71025.9 1.9 -0.0
2016-Jul-15 19:00S 53°06' W 070°54'0 0.0 030 / 71026.3 1.5 -0.0
2016-Jul-15 18:00S 53°06' W 070°54'0 0.0 030 / 81026.7 1.7 -0.0
2016-Jul-15 17:00S 53°06' W 070°54'0 0.0 040 / 81027.1 1.1 -0.0
2016-Jul-15 16:00S 53°06' W 070°54'0 0.0 040 / 91027.4 1.4 -0.0
2016-Jul-15 15:00S 53°06' W 070°54'0 0.0 040 / 81027.5 1.7 -0.0
2016-Jul-15 14:00S 53°06' W 070°54'0 0.0 050 / 71027.3 1.1 -0.0
2016-Jul-15 13:00S 53°06' W 070°54'   040 / 51027.0 1.1 -0.0
Track history (hours):
 
Tides and Currents Weather Stations Pressure Air Temp Water Temp Dewpoint Dewpoint Depression Visibility Wind Speed Wind Dir Waves Ship Positions

Oceanographic research ship Nathaniel B. Palmer (USA)

Contact: Ethan Norris, ethan.norris.contractor@usap.gov

Detailed information on ship capabilities available from University of Delaware's Ocean Information Center and ARCUS's ALIAS (Arctic Logistics Information and Support) project.

Owner: OFFSHORE SERVICE VESSELS, GALLIANO, LA. More information available from US FCC via Universal Licensing System and Coast Guard Vessel Documentation Center.

Last reported at 2016-Jul-25 13:00 UTC. Time now 2016-Jul-25 13:54 UTC.
Position S 53°06' W 070°54'.

Type: Other ship. MMSI: 366610000.

Wind from 280 at 10 knots

Barometer 1020.5 mb
Air temperature 2.8 ° C
Water temperature -0.0 ° C

Date/timePositionNaut miles runAvg speedWind from/ knotsBaromVisibWave heightAir tempDewpointWater temp
2016-Jul-25 13:00S 53°06' W 070°54'0 0.0 280 / 101020.5 2.8 -0.0
2016-Jul-25 12:00S 53°06' W 070°54'0 0.0 280 / 91020.4 2.7 -0.0
2016-Jul-25 11:00S 53°06' W 070°54'0 0.0 270 / 91020.1 2.7 -0.0
2016-Jul-25 10:00S 53°06' W 070°54'0 0.0 280 / 91020.0 2.4 -0.0
2016-Jul-25 09:00S 53°06' W 070°54'0 0.0 290 / 101020.2 2.6 -0.0
2016-Jul-25 08:00S 53°06' W 070°54'0 0.0 280 / 91020.4 2.5 -0.0
2016-Jul-25 07:00S 53°06' W 070°54'0 0.0 270 / 81020.5 3.5 -0.0
2016-Jul-25 06:00S 53°06' W 070°54'0 0.0 270 / 121020.6 3.3 -0.0
2016-Jul-25 05:00S 53°06' W 070°54'0 0.0 280 / 81020.9 3.0 -0.0
2016-Jul-25 04:00S 53°06' W 070°54'0 0.0 280 / 81020.8 3.4 -0.0
2016-Jul-25 03:00S 53°06' W 070°54'0 0.0 280 / 81020.5 3.6 -0.0
2016-Jul-25 02:00S 53°06' W 070°54'0 0.0 290 / 71020.2 3.7 -0.0
2016-Jul-25 01:00S 53°06' W 070°54'0 0.0 270 / 51020.2 4.0 -0.0
2016-Jul-25 00:00S 53°06' W 070°54'0 0.0 280 / 61020.2 3.9 -0.0
2016-Jul-24 23:00S 53°06' W 070°54'0 0.0 260 / 61020.1 4.8 -0.0
2016-Jul-24 22:00S 53°06' W 070°54'0 0.0 280 / 71019.7 4.8 -0.0
2016-Jul-24 21:00S 53°06' W 070°54'0 0.0 250 / 91019.5 5.5 -0.0
2016-Jul-24 20:00S 53°06' W 070°54'0 0.0 250 / 111019.5 6.0 -0.0
2016-Jul-24 19:00S 53°06' W 070°54'0 0.0 260 / 81019.4 6.2 -0.0
2016-Jul-24 18:00S 53°06' W 070°54'0 0.0 270 / 81019.6 5.9 -0.0
2016-Jul-24 17:00S 53°06' W 070°54'0 0.0 280 / 91019.7 5.8 -0.0
2016-Jul-24 16:00S 53°06' W 070°54'4 3.6 280 / 91019.8 5.4 -0.0
2016-Jul-24 15:00S 53°06' W 070°48'4 3.6 280 / 61019.5 5.0 -0.0
2016-Jul-24 14:00S 53°06' W 070°54'0 0.0 330 / 71019.3 4.5 -0.0
2016-Jul-24 13:00S 53°06' W 070°54'0 0.0 340 / 41019.2 4.0 -0.0
2016-Jul-24 12:00S 53°06' W 070°54'0 0.0 340 / 61018.6 4.0 -0.0
2016-Jul-24 11:00S 53°06' W 070°54'0 0.0 290 / 81018.1 4.4 -0.0
2016-Jul-24 10:00S 53°06' W 070°54'0 0.0 260 / 131018.0 4.5 -0.0
2016-Jul-24 09:00S 53°06' W 070°54'0 0.0 310 / 61018.0 3.9 -0.0
2016-Jul-24 08:00S 53°06' W 070°54'0 0.0 320 / 51017.8 3.7 -0.0
2016-Jul-24 07:00S 53°06' W 070°54'0 0.0 260 / 121017.4 3.9 -0.0
2016-Jul-24 06:00S 53°06' W 070°54'0 0.0 260 / 151017.1 4.2 -0.0
2016-Jul-24 05:00S 53°06' W 070°54'0 0.0 260 / 141017.2 4.0 -0.0
2016-Jul-24 04:00S 53°06' W 070°54'0 0.0 280 / 101017.2 3.8 -0.0
2016-Jul-24 03:00S 53°06' W 070°54'0 0.0 290 / 91017.0 3.6 -0.0
2016-Jul-24 02:00S 53°06' W 070°54'0 0.0 280 / 131016.5 3.5 -0.0
2016-Jul-24 01:00S 53°06' W 070°54'0 0.0 280 / 101016.4 3.3 -0.0
2016-Jul-24 00:00S 53°06' W 070°54'0 0.0 280 / 71016.0 3.3 -0.0
2016-Jul-23 23:00S 53°06' W 070°54'0 0.0 270 / 111015.3 3.2 -0.0
2016-Jul-23 22:00S 53°06' W 070°54'0 0.0 260 / 131014.7 3.4 -0.0
2016-Jul-23 21:00S 53°06' W 070°54'0 0.0 260 / 111014.4 3.9 -0.0
2016-Jul-23 20:00S 53°06' W 070°54'0 0.0 260 / 161013.8 4.4 -0.0
2016-Jul-23 19:00S 53°06' W 070°54'0 0.0 260 / 151013.7 4.0 -0.0
2016-Jul-23 18:00S 53°06' W 070°54'0 0.0 260 / 151013.7 4.1 -0.0
2016-Jul-23 17:00S 53°06' W 070°54'0 0.0 270 / 161013.6 4.0 -0.0
2016-Jul-23 16:00S 53°06' W 070°54'0 0.0 260 / 141013.4 3.9 -0.0
2016-Jul-23 15:00S 53°06' W 070°54'0 0.0 270 / 141013.1 3.4 -0.0
2016-Jul-23 14:00S 53°06' W 070°54'0 0.0 280 / 91012.9 2.8 -0.0
2016-Jul-23 13:00S 53°06' W 070°54'0 0.0 270 / 91012.2 2.7 -0.0
2016-Jul-23 12:00S 53°06' W 070°54'0 0.0 260 / 121011.0 2.7 -0.0
2016-Jul-23 11:00S 53°06' W 070°54'0 0.0 280 / 131010.3 2.6 -0.0
2016-Jul-23 10:00S 53°06' W 070°54'0 0.0 280 / 151009.8 2.6 -0.0
2016-Jul-23 09:00S 53°06' W 070°54'0 0.0 290 / 151009.4 2.7 -0.0
2016-Jul-23 08:00S 53°06' W 070°54'0 0.0 290 / 91009.5 2.4 -0.0
2016-Jul-23 07:00S 53°06' W 070°54'0 0.0 290 / 111009.6 2.0 -0.0
2016-Jul-23 06:00S 53°06' W 070°54'0 0.0 270 / 81009.1 1.8 -0.0
2016-Jul-23 05:00S 53°06' W 070°54'0 0.0 270 / 111008.7 1.9 -0.0
2016-Jul-23 04:00S 53°06' W 070°54'0 0.0 270 / 91008.2 1.9 -0.0
2016-Jul-23 03:00S 53°06' W 070°54'0 0.0 280 / 91007.8 2.2 -0.0
2016-Jul-23 02:00S 53°06' W 070°54'0 0.0 290 / 61007.5 2.7 -0.0
2016-Jul-23 01:00S 53°06' W 070°54'0 0.0 340 / 41006.8 3.5 -0.0
2016-Jul-23 00:00S 53°06' W 070°54'0 0.0 300 / 41006.2 3.1 -0.0
2016-Jul-22 23:00S 53°06' W 070°54'0 0.0 290 / 61005.5 3.2 -0.0
2016-Jul-22 22:00S 53°06' W 070°54'0 0.0 270 / 91004.6 3.6 -0.0
2016-Jul-22 21:00S 53°06' W 070°54'0 0.0 270 / 81004.0 3.9 -0.0
2016-Jul-22 20:00S 53°06' W 070°54'0 0.0 260 / 121003.4 4.5 -0.0
2016-Jul-22 19:00S 53°06' W 070°54'0 0.0 280 / 101003.2 4.6 -0.0
2016-Jul-22 18:00S 53°06' W 070°54'0 0.0 300 / 101002.9 5.0 -0.0
2016-Jul-22 17:00S 53°06' W 070°54'0 0.0 280 / 141002.5 5.0 -0.0
2016-Jul-22 16:00S 53°06' W 070°54'0 0.0 280 / 131002.4 4.9 -0.0
2016-Jul-22 15:00S 53°06' W 070°54'0 0.0 280 / 111002.1 4.7 -0.0
2016-Jul-22 14:00S 53°06' W 070°54'0 0.0 280 / 101001.9 4.5 -0.0
2016-Jul-22 13:00S 53°06' W 070°54'0 0.0 270 / 131001.6 4.8 -0.0
2016-Jul-22 12:00S 53°06' W 070°54'0 0.0 280 / 141001.3 5.3 -0.0
2016-Jul-22 11:00S 53°06' W 070°54'0 0.0 280 / 211000.8 5.5 -0.0
2016-Jul-22 10:00S 53°06' W 070°54'0 0.0 290 / 161000.8 5.0 -0.0
2016-Jul-22 09:00S 53°06' W 070°54'0 0.0 290 / 191000.3 5.1 -0.0
2016-Jul-22 08:00S 53°06' W 070°54'0 0.0 290 / 241000.2 5.0 -0.0
2016-Jul-22 07:00S 53°06' W 070°54'0 0.0 280 / 281000.1 4.9 -0.0
2016-Jul-22 06:00S 53°06' W 070°54'0 0.0 280 / 231000.2 4.7 -0.0
2016-Jul-22 05:00S 53°06' W 070°54'0 0.0 280 / 251000.3 4.9 -0.0
2016-Jul-22 04:00S 53°06' W 070°54'0 0.0 280 / 181001.1 5.0 -0.0
2016-Jul-22 03:00S 53°06' W 070°54'0 0.0 310 / 101001.6 4.9 -0.0
2016-Jul-22 02:00S 53°06' W 070°54'0 0.0 280 / 211001.1 4.7 -0.0
2016-Jul-22 01:00S 53°06' W 070°54'0 0.0 280 / 231001.1 4.5 -0.0
2016-Jul-22 00:00S 53°06' W 070°54'0 0.0 270 / 271000.6 4.7 -0.0
2016-Jul-21 23:00S 53°06' W 070°54'0 0.0 270 / 261000.7 4.6 -0.0
2016-Jul-21 22:00S 53°06' W 070°54'0 0.0 270 / 271000.5 4.4 -0.0
2016-Jul-21 21:00S 53°06' W 070°54'0 0.0 270 / 271000.1 4.6 -0.0
2016-Jul-21 20:00S 53°06' W 070°54'0 0.0 280 / 201000.2 4.1 -0.0
2016-Jul-21 19:00S 53°06' W 070°54'0 0.0 280 / 20999.8 4.3 -0.0
2016-Jul-21 18:00S 53°06' W 070°54'0 0.0 290 / 19999.3 3.9 -0.0
2016-Jul-21 17:00S 53°06' W 070°54'0 0.0 300 / 22998.9 3.9 -0.0
2016-Jul-21 16:00S 53°06' W 070°54'0 0.0 300 / 26998.3 4.0 -0.0
2016-Jul-21 15:00S 53°06' W 070°54'0 0.0 290 / 18997.8 3.5 -0.0
2016-Jul-21 14:00S 53°06' W 070°54'0 0.0 350 / 9998.5 3.3 -0.0
2016-Jul-21 13:00S 53°06' W 070°54'0 0.0 360 / 12998.9 3.3 -0.0
2016-Jul-21 12:00S 53°06' W 070°54'0 0.0 310 / 13998.8 2.9 -0.0
2016-Jul-21 11:00S 53°06' W 070°54'0 0.0 290 / 14998.7 2.8 -0.0
2016-Jul-21 10:00S 53°06' W 070°54'0 0.0 280 / 18998.0 2.8 -0.0
2016-Jul-21 09:00S 53°06' W 070°54'0 0.0 280 / 21997.3 2.8 -0.0
2016-Jul-21 08:00S 53°06' W 070°54'0 0.0 280 / 17996.6 3.0 -0.0
2016-Jul-21 07:00S 53°06' W 070°54'0 0.0 280 / 10995.8 3.6 -0.0
2016-Jul-21 06:00S 53°06' W 070°54'0 0.0 280 / 11994.2 4.3 -0.0
2016-Jul-21 05:00S 53°06' W 070°54'0 0.0 280 / 10992.6 5.2 -0.0
2016-Jul-21 04:00S 53°06' W 070°54'0 0.0 260 / 12990.1 5.7 -0.0
2016-Jul-21 03:00S 53°06' W 070°54'0 0.0 270 / 27987.3 5.5 -0.0
2016-Jul-21 02:00S 53°06' W 070°54'0 0.0 280 / 30985.6 5.8 -0.0
2016-Jul-21 01:00S 53°06' W 070°54'0 0.0 310 / 12985.7 5.7 -0.0
2016-Jul-21 00:00S 53°06' W 070°54'0 0.0 140 / 2985.4 4.7 -0.0
2016-Jul-20 23:00S 53°06' W 070°54'0 0.0 240 / 6985.1 4.5 -0.0
2016-Jul-20 22:00S 53°06' W 070°54'0 0.0 250 / 5985.0 4.3 -0.0
2016-Jul-20 21:00S 53°06' W 070°54'0 0.0 230 / 6985.2 4.3 -0.0
2016-Jul-20 20:00S 53°06' W 070°54'0 0.0 190 / 4985.6 4.5 -0.0
2016-Jul-20 19:00S 53°06' W 070°54'0 0.0 220 / 6986.4 4.5 -0.0
2016-Jul-20 18:00S 53°06' W 070°54'0 0.0 210 / 5987.4 4.4 -0.0
2016-Jul-20 17:00S 53°06' W 070°54'0 0.0 190 / 4988.6 4.5 -0.0
2016-Jul-20 16:00S 53°06' W 070°54'0 0.0 190 / 7989.3 4.3 -0.0
2016-Jul-20 15:00S 53°06' W 070°54'0 0.0 230 / 7989.9 3.9 -0.0
2016-Jul-20 14:00S 53°06' W 070°54'0 0.0 230 / 5990.5 3.8 -0.0
2016-Jul-20 13:00S 53°06' W 070°54'0 0.0 220 / 4990.8 4.1 -0.0
2016-Jul-20 12:00S 53°06' W 070°54'0 0.0 210 / 3991.1 4.4 -0.0
2016-Jul-20 11:00S 53°06' W 070°54'0 0.0 220 / 4991.6 4.4 -0.0
2016-Jul-20 10:00S 53°06' W 070°54'0 0.0 220 / 4992.3 4.2 -0.0
2016-Jul-20 09:00S 53°06' W 070°54'0 0.0 230 / 4993.3 4.3 -0.0
2016-Jul-20 08:00S 53°06' W 070°54'0 0.0 240 / 6994.1 4.2 -0.0
2016-Jul-20 07:00S 53°06' W 070°54'0 0.0 230 / 4995.0 4.4 -0.0
2016-Jul-20 06:00S 53°06' W 070°54'0 0.0 240 / 4995.6 4.2 -0.0
2016-Jul-20 05:00S 53°06' W 070°54'0 0.0 220 / 6996.3 3.9 -0.0
2016-Jul-20 04:00S 53°06' W 070°54'0 0.0 230 / 6997.5 4.1 -0.0
2016-Jul-20 03:00S 53°06' W 070°54'0 0.0 250 / 4998.3 4.2 -0.0
2016-Jul-20 02:00S 53°06' W 070°54'0 0.0 230 / 2998.8 4.8 -0.0
2016-Jul-20 01:00S 53°06' W 070°54'0 0.0 350 / 2999.6 5.6 -0.0
2016-Jul-20 00:00S 53°06' W 070°54'0 0.0 010 / 41000.6 5.6 -0.0
2016-Jul-19 23:00S 53°06' W 070°54'0 0.0 210 / 31001.2 5.4 -0.0
2016-Jul-19 22:00S 53°06' W 070°54'0 0.0 180 / 31001.5 5.9 -0.0
2016-Jul-19 21:00S 53°06' W 070°54'0 0.0 320 / 31001.6 6.0 -0.0
2016-Jul-19 20:00S 53°06' W 070°54'0 0.0 040 / 81002.0 6.0 -0.0
2016-Jul-19 19:00S 53°06' W 070°54'0 0.0 080 / 41002.2 6.4 -0.0
2016-Jul-19 18:00S 53°06' W 070°54'0 0.0 270 / 61002.9 7.2 -0.0
2016-Jul-19 17:00S 53°06' W 070°54'0 0.0 010 / 71004.4 7.7 -0.0
2016-Jul-19 16:00S 53°06' W 070°54'0 0.0 350 / 51005.1 7.2 -0.0
2016-Jul-19 15:00S 53°06' W 070°54'0 0.0 340 / 101005.6 5.8 -0.0
2016-Jul-19 14:00S 53°06' W 070°54'0 0.0 350 / 61005.4 4.2 -0.0
2016-Jul-19 13:00S 53°06' W 070°54'0 0.0 030 / 81004.9 5.5 -0.0
2016-Jul-19 12:00S 53°06' W 070°54'0 0.0 040 / 71004.6 4.7 -0.0
2016-Jul-19 11:00S 53°06' W 070°54'0 0.0 050 / 81003.8 4.6 -0.0
2016-Jul-19 10:00S 53°06' W 070°54'0 0.0 060 / 41003.4 5.6 -0.0
2016-Jul-19 09:00S 53°06' W 070°54'0 0.0 330 / 71003.5 7.0 -0.0
2016-Jul-19 08:00S 53°06' W 070°54'0 0.0 320 / 141004.3 6.5 -0.0
2016-Jul-19 07:00S 53°06' W 070°54'0 0.0 330 / 131005.3 6.3 -0.0
2016-Jul-19 06:00S 53°06' W 070°54'0 0.0 330 / 81005.8 6.4 -0.0
2016-Jul-19 05:00S 53°06' W 070°54'0 0.0 320 / 131006.6 5.6 -0.0
2016-Jul-19 04:00S 53°06' W 070°54'0 0.0 320 / 151007.1 5.4 -0.0
2016-Jul-19 03:00S 53°06' W 070°54'0 0.0 340 / 91007.5 5.7 -0.0
2016-Jul-19 02:00S 53°06' W 070°54'0 0.0 340 / 131008.0 5.8 -0.0
2016-Jul-19 01:00S 53°06' W 070°54'0 0.0 020 / 71008.6 5.6 -0.0
2016-Jul-19 00:00S 53°06' W 070°54'0 0.0 050 / 71009.0 4.7 -0.0
2016-Jul-18 23:00S 53°06' W 070°54'0 0.0 040 / 91009.2 4.7 -0.0
2016-Jul-18 22:00S 53°06' W 070°54'0 0.0 020 / 91009.0 5.8 -0.0
2016-Jul-18 21:00S 53°06' W 070°54'0 0.0 030 / 61008.6 6.6 -0.0
2016-Jul-18 20:00S 53°06' W 070°54'0 0.0 030 / 61008.9 6.6 -0.0
2016-Jul-18 19:00S 53°06' W 070°54'0 0.0 020 / 111008.7 6.5 -0.0
2016-Jul-18 18:00S 53°06' W 070°54'0 0.0 030 / 111008.5 6.0 -0.0
2016-Jul-18 17:00S 53°06' W 070°54'0 0.0 020 / 91008.9 5.5 -0.0
2016-Jul-18 16:00S 53°06' W 070°54'0 0.0 020 / 61008.7 4.6 -0.0
2016-Jul-18 15:00S 53°06' W 070°54'0 0.0 030 / 41008.6 3.4 -0.0
2016-Jul-18 14:00S 53°06' W 070°54'0 0.0 300 / 41008.2 1.7 -0.0
2016-Jul-18 13:00S 53°06' W 070°54'0 0.0 290 / 31007.6 2.0 -0.0
2016-Jul-18 12:00S 53°06' W 070°54'0 0.0 300 / 21007.2 2.5 -0.0
2016-Jul-18 11:00S 53°06' W 070°54'0 0.0 280 / 21006.8 2.6 -0.0
2016-Jul-18 10:00S 53°06' W 070°54'0 0.0 270 / 21006.0 2.3 -0.0
2016-Jul-18 09:00S 53°06' W 070°54'0 0.0 290 / 41005.5 2.1 -0.0
2016-Jul-18 08:00S 53°06' W 070°54'0 0.0 320 / 51005.3 1.8 -0.0
2016-Jul-18 07:00S 53°06' W 070°54'0 0.0 340 / 51004.8 2.6 -0.0
2016-Jul-18 06:00S 53°06' W 070°54'0 0.0 010 / 81004.8 3.4 -0.0
2016-Jul-18 05:00S 53°06' W 070°54'0 0.0 010 / 81004.9 4.1 -0.0
2016-Jul-18 04:00S 53°06' W 070°54'0 0.0 020 / 101004.9 4.3 -0.0
2016-Jul-18 03:00S 53°06' W 070°54'0 0.0 020 / 101004.9 4.4 -0.0
2016-Jul-18 02:00S 53°06' W 070°54'0 0.0 020 / 121004.7 4.5 -0.0
2016-Jul-18 01:00S 53°06' W 070°54'0 0.0 030 / 161004.9 4.5 -0.0
2016-Jul-18 00:00S 53°06' W 070°54'0 0.0 030 / 161005.2 4.4 -0.0
2016-Jul-17 23:00S 53°06' W 070°54'0 0.0 030 / 161005.5 4.6 -0.0
2016-Jul-17 22:00S 53°06' W 070°54'0 0.0 020 / 121005.7 4.7 -0.0
2016-Jul-17 21:00S 53°06' W 070°54'0 0.0 030 / 121005.6 4.4 -0.0
2016-Jul-17 20:00S 53°06' W 070°54'4 3.6 020 / 111005.9 4.2 -0.0
2016-Jul-17 19:00S 53°06' W 070°48'6 6.0 020 / 211005.9 3.6 -0.0
2016-Jul-17 18:00S 53°12' W 070°48'6 1.0 020 / 281006.3 3.5 -0.0
2016-Jul-17 12:00S 53°06' W 070°48'6 6.0 020 / 351008.1 3.4 -0.0
2016-Jul-17 11:00S 53°12' W 070°48'6 6.0 020 / 371008.3 3.4 -0.0
2016-Jul-17 10:00S 53°18' W 070°48'6 3.0 020 / 381008.8 3.4 -0.0
2016-Jul-17 08:00S 53°24' W 070°48'12 4.0 020 / 421009.1 4.7 -0.0
2016-Jul-17 05:00S 53°36' W 070°48'6 6.0 030 / 441010.2 5.0 -0.0
2016-Jul-17 04:00S 53°42' W 070°48'0 0.0 030 / 461010.8 5.1 -0.0
2016-Jul-17 03:00S 53°42' W 070°48'0 0.0 040 / 441011.0 5.1 -0.0
2016-Jul-17 02:00S 53°42' W 070°48'36 6.0 050 / 391012.5 5.7 -0.0
2016-Jul-16 20:00S 53°06' W 070°48'4 3.6 040 / 381013.4 5.5 -0.0
2016-Jul-16 19:00S 53°06' W 070°54'0 0.0 040 / 281015.3 5.3 -0.0
2016-Jul-16 18:00S 53°06' W 070°54'0 0.0 040 / 301016.3 4.7 -0.0
2016-Jul-16 17:00S 53°06' W 070°54'0 0.0 050 / 311017.3 4.5 -0.0
2016-Jul-16 16:00S 53°06' W 070°54'0 0.0 040 / 281018.7 4.3 -0.0
2016-Jul-16 15:00S 53°06' W 070°54'0 0.0 040 / 251020.0 4.2 -0.0
2016-Jul-16 14:00S 53°06' W 070°54'0 0.0 040 / 261020.5 4.1 -0.0
2016-Jul-16 13:00S 53°06' W 070°54'0 0.0 040 / 251021.2 4.1 -0.0
2016-Jul-16 12:00S 53°06' W 070°54'0 0.0 040 / 231021.6 4.1 -0.0
2016-Jul-16 11:00S 53°06' W 070°54'0 0.0 030 / 231022.2 4.1 -0.0
2016-Jul-16 10:00S 53°06' W 070°54'0 0.0 030 / 221022.5 4.2 -0.0
2016-Jul-16 09:00S 53°06' W 070°54'0 0.0 030 / 211022.9 4.3 -0.0
2016-Jul-16 08:00S 53°06' W 070°54'0 0.0 030 / 191023.3 4.4 -0.0
2016-Jul-16 07:00S 53°06' W 070°54'0 0.0 020 / 171023.8 4.5 -0.0
2016-Jul-16 06:00S 53°06' W 070°54'0 0.0 020 / 181024.3 4.3 -0.0
2016-Jul-16 05:00S 53°06' W 070°54'0 0.0 050 / 161024.8 3.0 -0.0
2016-Jul-16 04:00S 53°06' W 070°54'0 0.0 040 / 151025.4 2.8 -0.0
2016-Jul-16 03:00S 53°06' W 070°54'0 0.0 020 / 111026.1 1.8 -0.0
2016-Jul-16 02:00S 53°06' W 070°54'0 0.0 010 / 141026.3 1.9 -0.0
2016-Jul-16 01:00S 53°06' W 070°54'0 0.0 020 / 111026.3 1.4 -0.0
2016-Jul-16 00:00S 53°06' W 070°54'0 0.0 010 / 121026.4 1.3 -0.0
2016-Jul-15 23:00S 53°06' W 070°54'0 0.0 1026.2 1.5 -0.0
2016-Jul-15 22:00S 53°06' W 070°54'0 0.0 030 / 101025.9 2.5 -0.0
2016-Jul-15 21:00S 53°06' W 070°54'0 0.0 050 / 91025.8 2.3 -0.0
2016-Jul-15 20:00S 53°06' W 070°54'0 0.0 030 / 71025.9 1.9 -0.0
2016-Jul-15 19:00S 53°06' W 070°54'0 0.0 030 / 71026.3 1.5 -0.0
2016-Jul-15 18:00S 53°06' W 070°54'0 0.0 030 / 81026.7 1.7 -0.0
2016-Jul-15 17:00S 53°06' W 070°54'0 0.0 040 / 81027.1 1.1 -0.0
2016-Jul-15 16:00S 53°06' W 070°54'0 0.0 040 / 91027.4 1.4 -0.0
2016-Jul-15 15:00S 53°06' W 070°54'0 0.0 040 / 81027.5 1.7 -0.0
2016-Jul-15 14:00S 53°06' W 070°54'0 0.0 050 / 71027.3 1.1 -0.0
2016-Jul-15 13:00S 53°06' W 070°54'   040 / 51027.0 1.1 -0.0

Dump ship's entire track history